createdAt,value
2023-04-13T00:00:48.691Z,8.65
2023-04-13T00:03:17.610Z,8.61
2023-04-13T00:05:46.791Z,8.46
2023-04-13T00:08:17.100Z,8.46
2023-04-13T00:10:46.064Z,8.55
2023-04-13T00:13:14.828Z,8.57
2023-04-13T00:15:45.483Z,8.65
2023-04-13T00:18:12.598Z,8.39
2023-04-13T00:20:41.736Z,8.17
2023-04-13T00:23:08.724Z,8.21
2023-04-13T00:25:38.229Z,8.05
2023-04-13T00:28:06.429Z,8.27
2023-04-13T00:30:36.822Z,8.26
2023-04-13T00:33:04.088Z,8.09
2023-04-13T00:35:33.749Z,8.01
2023-04-13T00:38:04.282Z,7.75
2023-04-13T00:40:31.649Z,7.79
2023-04-13T00:43:00.585Z,7.81
2023-04-13T00:45:28.245Z,7.70
2023-04-13T00:47:58.077Z,7.87
2023-04-13T00:50:25.802Z,7.90
2023-04-13T00:52:55.214Z,7.82
2023-04-13T00:55:22.504Z,7.70
2023-04-13T00:57:53.515Z,7.62
2023-04-13T01:00:21.945Z,7.62
2023-04-13T01:02:50.679Z,7.61
2023-04-13T01:05:20.477Z,7.73
2023-04-13T01:08:28.574Z,7.72
2023-04-13T01:11:12.879Z,7.89
2023-04-13T01:13:56.084Z,7.70
2023-04-13T01:16:36.775Z,7.56
2023-04-13T01:19:08.119Z,7.61
2023-04-13T01:21:37.697Z,7.65
2023-04-13T01:24:17.894Z,7.56
2023-04-13T01:26:58.509Z,7.63
2023-04-13T01:29:27.761Z,7.53
2023-04-13T01:31:56.543Z,7.66
2023-04-13T01:34:26.736Z,7.52
2023-04-13T01:36:54.231Z,7.63
2023-04-13T01:39:22.180Z,7.70
2023-04-13T01:41:51.595Z,7.61
2023-04-13T01:44:21.151Z,7.54
2023-04-13T01:46:57.859Z,7.56
2023-04-13T01:49:28.228Z,7.48
2023-04-13T01:51:57.506Z,7.57
2023-04-13T01:54:27.360Z,7.30
2023-04-13T01:57:00.098Z,7.15
2023-04-13T01:59:29.454Z,7.02
2023-04-13T02:01:58.647Z,7.18
2023-04-13T02:04:25.784Z,7.19
2023-04-13T02:06:53.279Z,6.94
2023-04-13T02:09:20.198Z,7.11
2023-04-13T02:11:47.953Z,7.06
2023-04-13T02:14:15.703Z,6.96
2023-04-13T02:16:42.623Z,6.96
2023-04-13T02:19:14.851Z,6.98
2023-04-13T02:21:42.233Z,6.98
2023-04-13T02:24:11.818Z,7.02
2023-04-13T02:26:42.262Z,7.18
2023-04-13T02:29:10.109Z,7.13
2023-04-13T02:31:37.585Z,7.11
2023-04-13T02:34:11.678Z,7.13
2023-04-13T02:36:39.426Z,7.00
2023-04-13T02:39:06.429Z,7.24
2023-04-13T02:41:36.535Z,7.21
2023-04-13T02:44:03.465Z,6.98
2023-04-13T02:46:33.095Z,7.10
2023-04-13T02:49:00.431Z,6.97
2023-04-13T02:51:29.532Z,7.03
2023-04-13T02:53:58.836Z,7.04
2023-04-13T02:56:28.684Z,6.92
2023-04-13T02:58:55.726Z,6.88
2023-04-13T03:01:25.067Z,6.79
2023-04-13T03:03:52.285Z,6.82
2023-04-13T03:06:24.136Z,6.74
2023-04-13T03:08:52.770Z,6.82
2023-04-13T03:11:23.412Z,6.59
2023-04-13T03:13:54.242Z,6.54
2023-04-13T03:16:26.403Z,6.55
2023-04-13T03:18:54.510Z,6.39
2023-04-13T03:21:21.492Z,6.60
2023-04-13T03:23:50.906Z,6.75
2023-04-13T03:26:20.939Z,6.86
2023-04-13T03:28:50.000Z,6.96
2023-04-13T03:31:17.655Z,6.79
2023-04-13T03:33:44.598Z,6.78
2023-04-13T03:36:12.272Z,6.81
2023-04-13T03:38:39.266Z,6.99
2023-04-13T03:41:06.871Z,6.79
2023-04-13T03:43:36.541Z,6.75
2023-04-13T03:46:09.110Z,6.81
2023-04-13T03:48:39.785Z,6.76
2023-04-13T03:51:07.167Z,6.58
2023-04-13T03:53:38.760Z,6.73
2023-04-13T03:56:06.471Z,6.79
2023-04-13T03:58:33.452Z,6.79
2023-04-13T04:01:00.738Z,6.66
2023-04-13T04:03:27.872Z,6.44
2023-04-13T04:05:54.911Z,6.60
2023-04-13T04:08:22.168Z,6.47
2023-04-13T04:10:53.662Z,6.40
2023-04-13T04:13:23.657Z,6.51
2023-04-13T04:15:53.578Z,6.69
2023-04-13T04:18:23.707Z,6.82
2023-04-13T04:20:57.857Z,6.86
2023-04-13T04:23:28.162Z,6.95
2023-04-13T04:26:02.776Z,7.10
2023-04-13T04:28:30.582Z,7.00
2023-04-13T04:31:01.140Z,6.80
2023-04-13T04:33:28.151Z,6.55
2023-04-13T04:35:55.065Z,6.67
2023-04-13T04:38:24.452Z,6.61
2023-04-13T04:40:57.558Z,6.68
2023-04-13T04:43:30.501Z,6.83
2023-04-13T04:46:03.195Z,6.74
2023-04-13T04:48:31.060Z,6.66
2023-04-13T04:51:03.452Z,6.67
2023-04-13T04:53:30.444Z,6.69
2023-04-13T04:55:57.412Z,6.73
2023-04-13T04:58:24.354Z,6.82
2023-04-13T05:00:58.416Z,7.08
2023-04-13T05:03:25.806Z,7.13
2023-04-13T05:05:55.854Z,7.04
2023-04-13T05:08:25.143Z,7.15
2023-04-13T05:10:52.116Z,7.12
2023-04-13T05:13:21.741Z,7.18
2023-04-13T05:15:52.089Z,6.98
2023-04-13T05:18:19.216Z,7.13
2023-04-13T05:20:48.204Z,6.95
2023-04-13T05:23:18.217Z,7.07
2023-04-13T05:25:45.179Z,7.04
2023-04-13T05:28:12.440Z,7.09
2023-04-13T05:30:39.348Z,7.23
2023-04-13T05:33:08.178Z,7.40
2023-04-13T05:35:37.526Z,7.26
2023-04-13T05:38:07.042Z,7.43
2023-04-13T05:40:35.251Z,7.37
2023-04-13T05:43:02.345Z,7.38
2023-04-13T05:45:29.886Z,7.75
2023-04-13T05:47:59.323Z,7.92
2023-04-13T05:50:27.893Z,7.62
2023-04-13T05:52:54.830Z,7.76
2023-04-13T05:55:23.652Z,7.91
2023-04-13T05:57:51.433Z,8.06
2023-04-13T06:00:20.686Z,8.09
2023-04-13T06:02:50.916Z,8.40
2023-04-13T06:05:24.305Z,8.62
2023-04-13T06:07:51.714Z,8.85
2023-04-13T06:10:23.877Z,8.89
2023-04-13T06:12:53.344Z,9.34
2023-04-13T06:15:20.818Z,9.66
2023-04-13T06:17:51.616Z,9.63
2023-04-13T06:20:20.191Z,9.68
2023-04-13T06:22:47.435Z,9.53
2023-04-13T06:25:17.086Z,9.42
2023-04-13T06:27:47.164Z,9.43
2023-04-13T06:30:14.949Z,9.54
2023-04-13T06:32:47.430Z,9.80
2023-04-13T06:35:15.530Z,9.85
2023-04-13T06:37:42.821Z,9.88
2023-04-13T06:40:12.533Z,10.12
2023-04-13T06:42:41.427Z,10.28
2023-04-13T06:45:09.896Z,10.41
2023-04-13T06:47:39.863Z,10.73
2023-04-13T06:50:13.972Z,10.38
2023-04-13T06:52:47.630Z,10.39
2023-04-13T06:55:19.387Z,10.07
2023-04-13T06:57:46.469Z,10.38
2023-04-13T07:00:28.197Z,10.98
2023-04-13T07:03:02.457Z,10.67
2023-04-13T07:05:30.057Z,11.09
2023-04-13T07:07:57.228Z,11.23
2023-04-13T07:10:24.794Z,11.23
2023-04-13T07:12:51.798Z,11.50
2023-04-13T07:15:21.199Z,11.68
2023-04-13T07:17:52.508Z,11.50
2023-04-13T07:20:19.682Z,11.40
2023-04-13T07:22:49.189Z,12.03
2023-04-13T07:25:16.436Z,12.30
2023-04-13T07:27:43.322Z,11.98
2023-04-13T07:30:10.761Z,12.16
2023-04-13T07:32:41.031Z,12.09
2023-04-13T07:35:08.614Z,11.50
2023-04-13T07:37:38.112Z,11.69
2023-04-13T07:40:06.892Z,11.85
2023-04-13T07:42:33.885Z,12.38
2023-04-13T07:45:01.970Z,12.82
2023-04-13T07:47:31.623Z,12.55
2023-04-13T07:50:01.077Z,12.24
2023-04-13T07:52:28.914Z,12.95
2023-04-13T07:54:58.327Z,13.19
2023-04-13T07:57:25.651Z,12.96
2023-04-13T07:59:52.761Z,12.97
2023-04-13T08:02:22.594Z,13.18
2023-04-13T08:04:50.025Z,12.74
2023-04-13T08:07:17.023Z,12.89
2023-04-13T08:09:44.033Z,13.37
2023-04-13T08:12:13.733Z,13.35
2023-04-13T08:14:43.183Z,13.85
2023-04-13T08:17:13.119Z,14.41
2023-04-13T08:19:40.509Z,14.69
2023-04-13T08:22:07.485Z,14.22
2023-04-13T08:24:36.371Z,14.19
2023-04-13T08:27:10.591Z,14.76
2023-04-13T08:29:40.060Z,13.52
2023-04-13T08:32:09.749Z,13.44
2023-04-13T08:34:36.981Z,14.32
2023-04-13T08:37:03.996Z,14.21
2023-04-13T08:39:33.703Z,14.13
2023-04-13T08:42:01.893Z,13.48
2023-04-13T08:44:29.295Z,13.34
2023-04-13T08:46:56.643Z,13.52
2023-04-13T08:49:24.636Z,13.54
2023-04-13T08:51:59.727Z,13.58
2023-04-13T08:54:28.624Z,13.49
2023-04-13T08:56:59.461Z,13.17
2023-04-13T08:59:29.323Z,13.11
2023-04-13T09:01:58.293Z,13.82
2023-04-13T09:04:34.941Z,15.20
2023-04-13T09:07:04.702Z,15.75
2023-04-13T09:09:33.942Z,15.83
2023-04-13T09:12:01.026Z,16.05
2023-04-13T09:14:28.647Z,15.02
2023-04-13T09:16:55.908Z,15.25
2023-04-13T09:19:33.420Z,15.42
2023-04-13T09:22:16.642Z,16.44
2023-04-13T09:24:43.665Z,16.54
2023-04-13T09:27:21.768Z,17.30
2023-04-13T09:30:01.060Z,17.34
2023-04-13T09:32:31.311Z,16.89
2023-04-13T09:34:58.286Z,17.19
2023-04-13T09:37:28.259Z,17.61
2023-04-13T09:40:14.243Z,17.56
2023-04-13T09:42:57.111Z,18.24
2023-04-13T09:45:36.485Z,17.86
2023-04-13T09:48:20.721Z,17.42
2023-04-13T09:51:02.891Z,17.25
2023-04-13T09:53:45.805Z,17.49
2023-04-13T09:56:13.923Z,16.96
2023-04-13T09:58:45.792Z,16.65
2023-04-13T10:01:16.688Z,17.01
2023-04-13T10:03:44.476Z,17.23
2023-04-13T10:06:17.705Z,16.07
2023-04-13T10:08:46.386Z,17.08
2023-04-13T10:11:15.260Z,17.48
2023-04-13T10:14:02.843Z,17.20
2023-04-13T10:17:05.609Z,16.08
2023-04-13T10:19:43.442Z,16.52
2023-04-13T10:22:13.929Z,16.63
2023-04-13T10:24:41.505Z,16.46
2023-04-13T10:27:24.306Z,16.39
2023-04-13T10:29:53.574Z,16.61
2023-04-13T10:32:28.267Z,16.32
2023-04-13T10:34:55.965Z,16.05
2023-04-13T10:37:28.710Z,16.65
2023-04-13T10:40:08.041Z,16.66
2023-04-13T10:45:27.260Z,15.09
2023-04-13T10:47:56.017Z,14.56
2023-04-13T10:50:27.530Z,15.05
2023-04-13T10:53:26.532Z,16.79
2023-04-13T10:55:54.022Z,18.50
2023-04-13T10:58:20.945Z,20.56
2023-04-13T11:00:48.251Z,20.82
2023-04-13T11:03:17.251Z,19.13
2023-04-13T11:05:57.632Z,17.59
2023-04-13T11:08:28.098Z,18.76
2023-04-13T11:10:57.183Z,17.87
2023-04-13T11:13:29.137Z,18.04
2023-04-13T11:16:08.058Z,18.24
2023-04-13T11:18:37.252Z,18.89
2023-04-13T11:21:07.947Z,19.95
2023-04-13T11:23:36.050Z,20.53
2023-04-13T11:26:06.246Z,21.50
2023-04-13T11:28:42.468Z,21.78
2023-04-13T11:31:12.848Z,20.91
2023-04-13T11:33:40.863Z,19.46
2023-04-13T11:36:11.956Z,18.46
2023-04-13T11:38:41.573Z,18.70
2023-04-13T11:41:16.580Z,19.54
2023-04-13T11:43:48.774Z,19.81
2023-04-13T11:46:27.085Z,20.30
2023-04-13T11:48:54.742Z,20.39
2023-04-13T11:51:25.584Z,20.92
2023-04-13T11:53:53.144Z,19.26
2023-04-13T11:56:20.800Z,18.77
2023-04-13T11:58:51.505Z,17.91
2023-04-13T12:01:27.204Z,16.75
2023-04-13T12:04:15.350Z,16.87
2023-04-13T12:06:53.184Z,16.54
2023-04-13T12:09:22.149Z,16.31
2023-04-13T12:12:07.741Z,17.66
2023-04-13T12:19:57.240Z,18.92
2023-04-13T12:22:44.016Z,18.50
2023-04-13T12:25:24.464Z,18.45
2023-04-13T12:27:53.679Z,18.76
2023-04-13T12:30:27.576Z,17.59
2023-04-13T12:32:56.322Z,18.25
2023-04-13T12:35:23.691Z,17.98
2023-04-13T12:37:50.720Z,17.71
2023-04-13T12:40:18.571Z,18.15
2023-04-13T12:42:49.470Z,18.29
2023-04-13T12:45:16.962Z,17.50
2023-04-13T12:47:46.398Z,17.09
2023-04-13T12:50:16.982Z,16.71
2023-04-13T12:52:44.439Z,16.97
2023-04-13T12:55:13.578Z,17.01
2023-04-13T12:57:40.832Z,17.14
2023-04-13T13:00:12.197Z,17.18
2023-04-13T13:02:41.477Z,17.73
2023-04-13T13:05:11.080Z,17.48
2023-04-13T13:07:37.988Z,17.88
2023-04-13T13:10:15.057Z,17.06
2023-04-13T13:12:53.025Z,16.35
2023-04-13T13:15:22.726Z,15.99
2023-04-13T13:17:51.958Z,16.98
2023-04-13T13:20:18.995Z,16.81
2023-04-13T13:22:47.516Z,17.20
2023-04-13T13:25:16.254Z,16.75
2023-04-13T13:28:10.369Z,16.45
2023-04-13T13:30:32.615Z,16.22
2023-04-13T13:33:02.251Z,15.92
2023-04-13T13:35:31.711Z,16.17
2023-04-13T13:37:59.291Z,16.40
2023-04-13T13:40:26.753Z,16.97
2023-04-13T13:42:54.186Z,16.99
2023-04-13T13:45:21.927Z,15.86
2023-04-13T13:47:54.485Z,16.41
2023-04-13T13:50:24.420Z,17.22
2023-04-13T13:53:02.255Z,16.62
2023-04-13T13:55:31.663Z,17.18
2023-04-13T13:57:59.336Z,17.40
2023-04-13T14:00:27.255Z,17.83
2023-04-13T14:02:57.034Z,17.99
2023-04-13T14:05:24.555Z,17.50
2023-04-13T14:07:51.703Z,16.97
2023-04-13T14:10:18.977Z,16.51
2023-04-13T14:12:49.606Z,16.84
2023-04-13T14:15:20.596Z,17.36
2023-04-13T14:17:55.810Z,16.87
2023-04-13T14:20:35.471Z,16.81
2023-04-13T14:23:02.477Z,16.54
2023-04-13T14:25:31.873Z,16.75
2023-04-13T14:27:58.852Z,16.79
2023-04-13T14:30:31.253Z,16.85
2023-04-13T14:33:01.281Z,16.59
2023-04-13T14:35:29.486Z,15.96
2023-04-13T14:37:56.854Z,15.80
2023-04-13T14:40:24.365Z,16.11
2023-04-13T14:42:55.037Z,16.44
2023-04-13T14:45:25.193Z,15.94
2023-04-13T14:47:54.118Z,15.46
2023-04-13T14:50:21.337Z,15.48
2023-04-13T14:52:50.430Z,15.88
2023-04-13T14:55:17.812Z,15.92
2023-04-13T14:57:45.781Z,16.36
2023-04-13T15:00:21.260Z,16.04
2023-04-13T15:02:50.664Z,15.96
2023-04-13T15:05:18.931Z,15.91
2023-04-13T15:07:46.230Z,15.79
2023-04-13T15:10:13.230Z,15.76
2023-04-13T15:12:41.112Z,15.68
2023-04-13T15:15:09.167Z,15.71
2023-04-13T15:17:36.414Z,15.67
2023-04-13T15:20:07.451Z,15.53
2023-04-13T15:22:38.985Z,15.47
2023-04-13T15:25:06.864Z,15.45
2023-04-13T15:27:36.376Z,14.98
2023-04-13T15:30:04.010Z,14.77
2023-04-13T15:32:36.816Z,14.35
2023-04-13T15:35:04.040Z,13.98
2023-04-13T15:37:35.487Z,14.16
2023-04-13T15:40:08.008Z,14.11
2023-04-13T15:42:34.859Z,14.04
2023-04-13T15:45:03.110Z,13.97
2023-04-13T15:47:30.160Z,14.06
2023-04-13T15:49:57.156Z,14.03
2023-04-13T15:52:24.385Z,14.20
2023-04-13T15:54:51.465Z,14.44
2023-04-13T15:57:20.777Z,14.64
2023-04-13T15:59:49.779Z,14.85
2023-04-13T16:02:16.926Z,15.05
2023-04-13T16:04:46.318Z,14.91
2023-04-13T16:07:14.459Z,14.95
2023-04-13T16:09:47.115Z,15.03
2023-04-13T16:12:17.667Z,15.03
2023-04-13T16:14:47.150Z,14.89
2023-04-13T16:17:15.631Z,14.85
2023-04-13T16:19:46.582Z,14.80
2023-04-13T16:22:13.644Z,14.68
2023-04-13T16:24:43.079Z,14.32
2023-04-13T16:27:12.572Z,14.51
2023-04-13T16:29:41.638Z,14.60
2023-04-13T16:32:09.082Z,14.77
2023-04-13T16:34:40.662Z,14.49
2023-04-13T16:37:15.574Z,14.84
2023-04-13T16:39:44.296Z,14.68
2023-04-13T16:42:12.233Z,14.48
2023-04-13T16:44:47.440Z,14.67
2023-04-13T16:47:14.609Z,14.74
2023-04-13T16:49:46.138Z,14.60
2023-04-13T16:52:13.146Z,14.58
2023-04-13T16:54:43.989Z,14.83
2023-04-13T16:57:11.969Z,14.39
2023-04-13T16:59:39.072Z,13.97
2023-04-13T17:02:15.363Z,13.82
2023-04-13T17:04:57.049Z,13.85
2023-04-13T17:07:28.221Z,14.06
2023-04-13T17:09:55.859Z,14.34
2023-04-13T17:12:23.359Z,14.39
2023-04-13T17:14:52.947Z,14.70
2023-04-13T17:17:22.293Z,14.96
2023-04-13T17:19:52.280Z,14.78
2023-04-13T17:22:19.708Z,14.59
2023-04-13T17:24:46.944Z,14.57
2023-04-13T17:27:16.511Z,14.52
2023-04-13T17:29:43.575Z,14.48
2023-04-13T17:32:10.819Z,14.63
2023-04-13T17:34:37.968Z,14.51
2023-04-13T17:37:07.625Z,14.51
2023-04-13T17:39:36.084Z,14.32
2023-04-13T17:42:03.246Z,14.40
2023-04-13T17:44:30.396Z,14.46
2023-04-13T17:46:57.396Z,14.50
2023-04-13T17:49:27.912Z,14.08
2023-04-13T17:51:54.856Z,14.19
2023-04-13T17:54:21.755Z,14.15
2023-04-13T17:56:48.701Z,14.13
2023-04-13T17:59:18.629Z,14.28
2023-04-13T18:01:45.985Z,13.95
2023-04-13T18:04:15.716Z,14.03
2023-04-13T18:06:45.317Z,14.20
2023-04-13T18:09:14.860Z,14.27
2023-04-13T18:11:41.949Z,14.36
2023-04-13T18:14:15.170Z,14.27
2023-04-13T18:16:42.658Z,14.11
2023-04-13T18:19:16.571Z,14.18
2023-04-13T18:21:45.781Z,14.09
2023-04-13T18:24:12.717Z,14.13
2023-04-13T18:26:39.980Z,14.20
2023-04-13T18:29:09.642Z,14.12
2023-04-13T18:31:39.209Z,14.20
2023-04-13T18:34:10.524Z,14.07
2023-04-13T18:36:37.529Z,14.07
2023-04-13T18:39:04.485Z,14.01
2023-04-13T18:41:33.846Z,14.08
2023-04-13T18:44:03.282Z,13.99
2023-04-13T18:46:33.673Z,13.80
2023-04-13T18:49:01.372Z,13.41
2023-04-13T18:51:30.737Z,13.35
2023-04-13T18:53:59.948Z,13.35
2023-04-13T18:56:27.059Z,13.37
2023-04-13T18:58:56.148Z,13.29
2023-04-13T19:01:23.071Z,13.04
2023-04-13T19:03:52.386Z,12.95
2023-04-13T19:06:22.005Z,13.04
2023-04-13T19:08:49.065Z,13.07
2023-04-13T19:11:17.575Z,12.86
2023-04-13T19:13:46.250Z,12.76
2023-04-13T19:16:16.108Z,12.84
2023-04-13T19:18:43.034Z,12.76
2023-04-13T19:21:12.494Z,12.93
2023-04-13T19:23:40.564Z,12.94
2023-04-13T19:26:07.702Z,13.01
2023-04-13T19:28:39.521Z,12.92
2023-04-13T19:31:09.038Z,13.04
2023-04-13T19:33:36.033Z,13.13
2023-04-13T19:36:05.758Z,13.16
2023-04-13T19:38:38.326Z,13.11
2023-04-13T19:41:05.275Z,13.02
2023-04-13T19:43:32.377Z,13.09
2023-04-13T19:45:59.565Z,13.13
2023-04-13T19:48:28.734Z,13.30
2023-04-13T19:50:56.029Z,13.32
2023-04-13T19:53:23.051Z,13.32
2023-04-13T19:55:53.210Z,13.20
2023-04-13T19:58:20.276Z,13.05
2023-04-13T20:00:47.405Z,13.23
2023-04-13T20:03:20.533Z,13.36
2023-04-13T20:05:49.697Z,13.32
2023-04-13T20:08:17.457Z,13.36
2023-04-13T20:10:44.610Z,13.24
2023-04-13T20:13:11.774Z,13.19
2023-04-13T20:15:39.545Z,13.21
2023-04-13T20:18:09.275Z,13.22
2023-04-13T20:20:42.501Z,13.32
2023-04-13T20:23:14.728Z,13.12
2023-04-13T20:25:44.180Z,13.07
2023-04-13T20:28:11.279Z,12.92
2023-04-13T20:30:39.505Z,12.86
2023-04-13T20:33:09.076Z,12.89
2023-04-13T20:35:38.653Z,12.91
2023-04-13T20:38:06.158Z,12.88
2023-04-13T20:40:37.883Z,12.98
2023-04-13T20:43:11.247Z,12.88
2023-04-13T20:45:42.998Z,12.80
2023-04-13T20:50:47.675Z,12.74
2023-04-13T20:53:17.795Z,12.61
2023-04-13T20:55:47.155Z,12.54
2023-04-13T20:58:17.181Z,12.54
2023-04-13T21:00:44.960Z,12.51
2023-04-13T21:03:17.288Z,12.42
2023-04-13T21:05:44.522Z,12.41
2023-04-13T21:08:14.892Z,12.49
2023-04-13T21:10:44.244Z,12.50
2023-04-13T21:13:16.294Z,12.54
2023-04-13T21:15:43.509Z,12.48
2023-04-13T21:18:13.595Z,12.45
2023-04-13T21:20:44.077Z,12.42
2023-04-13T21:23:11.093Z,12.28
2023-04-13T21:25:38.076Z,12.19
2023-04-13T21:28:08.348Z,12.23
2023-04-13T21:30:35.696Z,12.02
2023-04-13T21:33:02.716Z,11.86
2023-04-13T21:35:29.749Z,11.73
2023-04-13T21:37:56.670Z,11.80
2023-04-13T21:40:24.888Z,11.76
2023-04-13T21:42:54.849Z,11.59
2023-04-13T21:45:21.866Z,11.42
2023-04-13T21:47:48.914Z,11.49
2023-04-13T21:50:18.887Z,11.44
2023-04-13T21:52:45.859Z,11.57
2023-04-13T21:55:18.933Z,11.65
2023-04-13T21:57:49.616Z,11.39
2023-04-13T22:00:18.065Z,11.26
2023-04-13T22:02:45.165Z,11.24
2023-04-13T22:05:16.694Z,11.29
2023-04-13T22:07:48.422Z,11.20
2023-04-13T22:10:15.523Z,11.10
2023-04-13T22:12:42.474Z,11.15
2023-04-13T22:15:09.905Z,11.23
2023-04-13T22:17:39.222Z,11.20
2023-04-13T22:20:07.206Z,11.19
2023-04-13T22:22:36.434Z,11.01
2023-04-13T22:25:06.194Z,10.72
2023-04-13T22:27:36.670Z,10.88
2023-04-13T22:30:03.832Z,11.01
2023-04-13T22:32:33.188Z,10.98
2023-04-13T22:35:02.686Z,10.97
2023-04-13T22:37:35.807Z,10.68
2023-04-13T22:40:04.588Z,10.57
2023-04-13T22:42:36.627Z,10.63
2023-04-13T22:45:06.895Z,10.73
2023-04-13T22:47:33.910Z,10.73
2023-04-13T22:50:01.563Z,10.72
2023-04-13T22:52:28.530Z,10.76
2023-04-13T22:54:57.787Z,10.65
2023-04-13T22:57:27.358Z,10.56
2023-04-13T22:59:59.017Z,10.44
2023-04-13T23:02:28.700Z,10.61
2023-04-13T23:05:02.110Z,10.64
2023-04-13T23:07:34.279Z,10.81
2023-04-13T23:10:01.710Z,10.71
2023-04-13T23:12:29.376Z,10.57
2023-04-13T23:14:59.117Z,10.53
2023-04-13T23:17:26.463Z,10.47
2023-04-13T23:19:54.869Z,10.47
2023-04-13T23:22:22.380Z,10.48
2023-04-13T23:24:49.982Z,10.36
2023-04-13T23:27:18.132Z,10.32
2023-04-13T23:29:54.916Z,10.13
2023-04-13T23:32:24.296Z,10.07
2023-04-13T23:34:51.363Z,10.10
2023-04-13T23:37:18.346Z,10.02
2023-04-13T23:39:48.773Z,10.11
2023-04-13T23:42:18.062Z,10.13
2023-04-13T23:44:47.284Z,10.04
2023-04-13T23:47:15.276Z,9.93
2023-04-13T23:49:46.733Z,10.13
2023-04-13T23:52:16.086Z,10.20
2023-04-13T23:54:43.090Z,10.14
2023-04-13T23:57:11.917Z,9.90
2023-04-13T23:59:39.162Z,10.06
